createdAt,value
2019-03-27T00:01:08.392Z,103358.04
2019-03-27T00:06:11.091Z,103358.19
2019-03-27T00:11:16.243Z,103361.45
2019-03-27T00:16:19.644Z,103363.02
2019-03-27T00:21:23.187Z,103350.80
2019-03-27T00:26:28.729Z,103356.73
2019-03-27T00:31:33.118Z,103354.19
2019-03-27T00:36:39.105Z,103347.34
2019-03-27T00:41:41.762Z,103349.75
2019-03-27T00:46:44.665Z,103346.04
2019-03-27T00:51:47.231Z,103356.20
2019-03-27T00:56:49.912Z,103366.85
2019-03-27T01:01:52.743Z,103360.45
2019-03-27T01:06:58.482Z,103361.55
2019-03-27T01:12:01.088Z,103363.77
2019-03-27T01:17:06.655Z,103362.42
2019-03-27T01:22:09.201Z,103367.22
2019-03-27T01:27:11.798Z,103364.75
2019-03-27T01:32:18.901Z,103372.69
2019-03-27T01:37:21.603Z,103368.06
2019-03-27T01:42:24.170Z,103355.97
2019-03-27T01:47:29.773Z,103363.83
2019-03-27T01:52:37.869Z,103357.75
2019-03-27T01:57:42.690Z,103361.57
2019-03-27T02:02:47.995Z,103355.08
2019-03-27T02:07:50.583Z,103354.45
2019-03-27T02:12:58.365Z,103342.41
2019-03-27T02:18:00.954Z,103346.46
2019-03-27T02:23:03.553Z,103347.73
2019-03-27T02:28:06.174Z,103340.11
2019-03-27T02:33:08.995Z,103332.69
2019-03-27T02:38:11.559Z,103334.89
2019-03-27T02:43:14.105Z,103337.77
2019-03-27T02:48:16.672Z,103332.16
2019-03-27T02:53:19.377Z,103330.23
2019-03-27T02:58:21.972Z,103322.83
2019-03-27T03:03:26.935Z,103319.00
2019-03-27T03:08:29.556Z,103325.41
2019-03-27T03:13:32.236Z,103332.31
2019-03-27T03:18:39.578Z,103336.20
2019-03-27T03:23:42.331Z,103346.41
2019-03-27T03:28:47.940Z,103345.52
2019-03-27T03:33:50.622Z,103341.92
2019-03-27T03:38:53.161Z,103343.00
2019-03-27T03:43:55.785Z,103340.61
2019-03-27T03:48:58.382Z,103343.62
2019-03-27T03:54:01.687Z,103346.41
2019-03-27T03:59:05.160Z,103345.39
2019-03-27T04:04:09.312Z,103358.44
2019-03-27T04:09:13.079Z,103359.72
2019-03-27T04:14:15.674Z,103367.53
2019-03-27T04:19:20.806Z,103375.22
2019-03-27T04:24:26.352Z,103380.37
2019-03-27T04:29:30.088Z,103376.85
2019-03-27T04:34:35.891Z,103380.25
2019-03-27T04:39:38.437Z,103379.37
2019-03-27T04:44:43.712Z,103386.64
2019-03-27T04:49:46.249Z,103397.35
2019-03-27T04:54:49.004Z,103394.91
2019-03-27T04:59:51.590Z,103396.88
2019-03-27T05:04:56.568Z,103391.33
2019-03-27T05:09:59.163Z,103394.53
2019-03-27T05:15:01.962Z,103388.54
2019-03-27T05:20:06.018Z,103391.56
2019-03-27T05:25:09.089Z,103389.37
2019-03-27T05:30:13.463Z,103402.92
2019-03-27T05:35:17.752Z,103403.17
2019-03-27T05:40:20.323Z,103409.72
2019-03-27T05:45:23.206Z,103410.83
2019-03-27T05:50:25.773Z,103413.50
2019-03-27T05:55:28.479Z,103409.81
2019-03-27T06:00:33.415Z,103420.30
2019-03-27T06:05:35.783Z,103437.51
2019-03-27T06:10:38.332Z,103437.13
2019-03-27T06:15:44.992Z,103430.48
2019-03-27T06:20:46.881Z,103430.00
2019-03-27T06:25:49.583Z,103425.70
2019-03-27T06:30:52.201Z,103422.81
2019-03-27T06:35:55.073Z,103428.76
2019-03-27T06:40:57.766Z,103434.94
2019-03-27T06:46:00.663Z,103441.65
2019-03-27T06:51:03.448Z,103443.77
2019-03-27T06:56:06.095Z,103452.28
2019-03-27T07:01:08.732Z,103452.79
2019-03-27T07:06:11.678Z,103455.39
2019-03-27T07:11:14.268Z,103456.32
2019-03-27T07:16:19.392Z,103443.47
2019-03-27T07:21:22.053Z,103453.55
2019-03-27T07:26:27.605Z,103455.14
2019-03-27T07:31:30.163Z,103460.54
2019-03-27T07:36:33.114Z,103454.81
2019-03-27T07:41:36.168Z,103447.48
2019-03-27T07:46:38.813Z,103457.22
2019-03-27T07:51:42.841Z,103454.91
2019-03-27T07:56:45.569Z,103451.84
2019-03-27T08:01:51.035Z,103453.19
2019-03-27T08:06:55.334Z,103448.31
2019-03-27T08:11:58.533Z,103446.11
2019-03-27T08:17:03.360Z,103460.19
2019-03-27T08:22:08.350Z,103458.30
2019-03-27T08:27:15.271Z,103461.32
2019-03-27T08:32:17.766Z,103461.14
2019-03-27T08:37:20.345Z,103473.16
2019-03-27T08:42:23.377Z,103473.92
2019-03-27T08:47:28.739Z,103476.51
2019-03-27T08:52:31.844Z,103475.94
2019-03-27T08:57:34.440Z,103485.90
2019-03-27T09:02:40.441Z,103479.69
2019-03-27T09:07:43.014Z,103484.17
2019-03-27T09:12:52.073Z,103490.46
2019-03-27T09:17:56.113Z,103498.92
2019-03-27T09:22:59.816Z,103498.92
2019-03-27T09:28:07.499Z,103496.67
2019-03-27T09:33:10.426Z,103509.27
2019-03-27T09:38:12.979Z,103509.27
2019-03-27T09:43:17.897Z,103506.17
2019-03-27T09:48:20.665Z,103506.17
2019-03-27T09:53:24.679Z,103508.20
2019-03-27T09:58:29.368Z,103526.97
2019-03-27T10:03:34.929Z,103526.23
2019-03-27T10:08:37.915Z,103524.36
2019-03-27T10:13:41.022Z,103528.77
2019-03-27T10:18:43.639Z,103533.06
2019-03-27T10:23:49.679Z,103530.20
2019-03-27T10:28:52.443Z,103531.80
2019-03-27T10:33:55.187Z,103536.56
2019-03-27T10:38:57.747Z,103526.58
2019-03-27T10:44:00.320Z,103530.59
2019-03-27T10:49:02.888Z,103521.94
2019-03-27T10:54:07.335Z,103534.47
2019-03-27T10:59:13.081Z,103528.97
2019-03-27T11:04:16.814Z,103528.13
2019-03-27T11:09:19.503Z,103529.16
2019-03-27T11:14:22.334Z,103531.59
2019-03-27T11:19:25.098Z,103526.33
2019-03-27T11:24:28.110Z,103529.83
2019-03-27T11:29:30.719Z,103534.99
2019-03-27T11:34:36.431Z,103533.22
2019-03-27T11:39:39.327Z,103525.58
2019-03-27T11:44:42.327Z,103528.49
2019-03-27T11:49:47.661Z,103529.10
2019-03-27T11:54:52.946Z,103527.73
2019-03-27T11:59:57.015Z,103519.80
2019-03-27T12:05:01.683Z,103525.13
2019-03-27T12:10:05.874Z,103520.05
2019-03-27T12:15:09.192Z,103511.41
2019-03-27T12:20:13.358Z,103518.14
2019-03-27T12:25:16.573Z,103507.48
2019-03-27T12:30:21.101Z,103508.20
2019-03-27T12:35:25.346Z,103505.70
2019-03-27T12:40:28.005Z,103508.88
2019-03-27T12:45:31.212Z,103500.66
2019-03-27T12:50:35.790Z,103495.04
2019-03-27T12:55:38.501Z,103495.45
2019-03-27T13:00:41.589Z,103506.44
2019-03-27T13:05:50.431Z,103499.87
2019-03-27T13:10:54.056Z,103503.42
2019-03-27T13:15:56.891Z,103500.51
2019-03-27T13:20:59.859Z,103504.94
2019-03-27T13:26:02.464Z,103503.97
2019-03-27T13:31:06.620Z,103512.69
2019-03-27T13:36:12.334Z,103509.02
2019-03-27T13:41:15.058Z,103508.14
2019-03-27T13:46:17.731Z,103510.30
2019-03-27T13:51:20.393Z,103509.37
2019-03-27T13:56:23.255Z,103509.50
2019-03-27T14:01:25.835Z,103507.59
2019-03-27T14:06:28.915Z,103496.22
2019-03-27T14:11:31.544Z,103483.36
2019-03-27T14:16:34.557Z,103484.25
2019-03-27T14:21:37.290Z,103494.84
2019-03-27T14:26:45.376Z,103490.84
2019-03-27T14:31:44.627Z,103500.09
2019-03-27T14:36:47.329Z,103492.96
2019-03-27T14:41:51.019Z,103498.29
2019-03-27T14:46:56.229Z,103496.77
2019-03-27T14:52:08.056Z,103485.46
2019-03-27T14:57:03.840Z,103491.02
2019-03-27T15:02:09.691Z,103495.65
2019-03-27T15:07:12.424Z,103491.63
2019-03-27T15:12:17.780Z,103495.83
2019-03-27T15:17:20.442Z,103504.39
2019-03-27T15:22:23.605Z,103503.68
2019-03-27T15:27:26.509Z,103501.41
2019-03-27T15:32:29.169Z,103503.27
2019-03-27T15:37:31.748Z,103498.13
2019-03-27T15:42:36.135Z,103498.48
2019-03-27T15:47:38.851Z,103498.47
2019-03-27T15:52:41.520Z,103494.83
2019-03-27T15:57:44.140Z,103497.52
2019-03-27T16:02:52.937Z,103499.28
2019-03-27T16:07:56.745Z,103501.01
2019-03-27T16:12:59.410Z,103502.92
2019-03-27T16:18:02.192Z,103513.78
2019-03-27T16:23:07.252Z,103513.78
2019-03-27T16:28:09.813Z,103510.89
2019-03-27T16:33:12.769Z,103510.89
2019-03-27T16:38:15.399Z,103522.95
2019-03-27T16:43:18.864Z,103520.76
2019-03-27T16:48:21.541Z,103520.76
2019-03-27T16:53:24.706Z,103520.62
2019-03-27T16:58:27.597Z,103520.62
2019-03-27T17:03:30.268Z,103581.86
2019-03-27T17:08:32.827Z,103525.20
2019-03-27T17:13:35.736Z,103519.84
2019-03-27T17:18:38.532Z,103524.08
2019-03-27T17:23:41.227Z,103527.75
2019-03-27T17:28:43.970Z,103533.84
2019-03-27T17:33:46.701Z,103536.20
2019-03-27T17:38:49.272Z,103538.89
2019-03-27T17:43:52.087Z,103534.98
2019-03-27T17:48:54.834Z,103542.63
2019-03-27T17:53:57.695Z,103542.63
2019-03-27T17:59:00.252Z,103548.25
2019-03-27T18:04:02.979Z,103550.65
2019-03-27T18:09:07.453Z,103567.31
2019-03-27T18:14:10.655Z,103559.01
2019-03-27T18:19:14.451Z,103559.01
2019-03-27T18:24:17.049Z,103561.59
2019-03-27T18:29:22.938Z,103561.59
2019-03-27T18:34:30.718Z,103565.05
2019-03-27T18:39:33.397Z,103565.05
2019-03-27T18:44:36.243Z,103563.88
2019-03-27T18:49:40.724Z,103556.72
2019-03-27T18:54:43.633Z,103567.80
2019-03-27T18:59:47.298Z,103573.24
2019-03-27T19:04:50.387Z,103573.92
2019-03-27T19:09:53.264Z,103573.25
2019-03-27T19:14:56.097Z,103583.95
2019-03-27T19:19:58.653Z,103583.95
2019-03-27T19:25:01.365Z,103583.66
2019-03-27T19:30:05.223Z,103596.91
2019-03-27T19:35:08.391Z,103596.91
2019-03-27T19:40:11.511Z,103604.27
2019-03-27T19:45:14.252Z,103610.95
2019-03-27T19:50:18.200Z,103607.41
2019-03-27T19:55:20.930Z,103609.64
2019-03-27T20:00:23.796Z,103608.14
2019-03-27T20:05:31.180Z,103604.95
2019-03-27T20:10:35.989Z,103609.55
2019-03-27T20:15:38.715Z,103616.30
2019-03-27T20:20:41.374Z,103609.33
2019-03-27T20:25:46.820Z,103603.34
2019-03-27T20:30:49.547Z,103603.34
2019-03-27T20:35:52.472Z,103614.31
2019-03-27T20:40:55.046Z,103616.39
2019-03-27T20:45:58.004Z,103609.25
2019-03-27T20:51:01.852Z,103605.08
2019-03-27T20:56:04.572Z,103609.55
2019-03-27T21:01:08.960Z,103613.16
2019-03-27T21:06:11.913Z,103613.70
2019-03-27T21:11:14.588Z,103609.23
2019-03-27T21:16:18.168Z,103618.42
2019-03-27T21:21:22.528Z,103622.66
2019-03-27T21:26:25.150Z,103626.56
2019-03-27T21:31:27.820Z,103625.87
2019-03-27T21:36:33.497Z,103625.48
2019-03-27T21:41:36.423Z,103626.12
2019-03-27T21:46:39.640Z,103629.04
2019-03-27T21:51:42.506Z,103628.62
2019-03-27T21:56:45.289Z,103631.14
2019-03-27T22:01:47.861Z,103635.02
2019-03-27T22:06:50.566Z,103626.91
2019-03-27T22:11:56.802Z,103629.13
2019-03-27T22:16:59.640Z,103623.16
2019-03-27T22:22:02.397Z,103622.56
2019-03-27T22:27:05.039Z,103625.31
2019-03-27T22:32:10.604Z,103629.66
2019-03-27T22:37:13.201Z,103630.00
2019-03-27T22:42:15.775Z,103626.73
2019-03-27T22:47:21.405Z,103623.87
2019-03-27T22:52:24.588Z,103623.87
2019-03-27T22:57:29.468Z,103631.27
2019-03-27T23:02:35.649Z,103626.23
2019-03-27T23:07:38.190Z,103631.58
2019-03-27T23:12:41.229Z,103632.81
2019-03-27T23:17:43.904Z,103634.71
2019-03-27T23:22:49.057Z,103635.21
2019-03-27T23:27:51.621Z,103638.98
2019-03-27T23:32:54.387Z,103642.65
2019-03-27T23:37:57.185Z,103645.85
2019-03-27T23:43:01.618Z,103641.25
2019-03-27T23:48:04.258Z,103639.84
2019-03-27T23:53:07.118Z,103641.68
2019-03-27T23:58:09.790Z,103631.91
